Time;durP1;ratioP1;P1;durP2;ratioP2;P2;SDS_P1;SDS_P2;PMS_P1;PMS_P2;Temp;Humidity;BMP_temperature;BMP_pressure;BME280_temperature;BME280_humidity;BME280_pressure;Samples;Min_cycle;Max_cycle;Signal;HPM_P1;HPM_P2
2021/03/14 00:00:17;;;;;;;6.90;0.93;;;;;;;;;;4930487;28;20089;-57
2021/03/14 00:02:42;;;;;;;5.97;0.88;;;;;;;;;;4908116;28;20645;-58
2021/03/14 00:05:08;;;;;;;7.20;0.90;;;;;;;;;;4928563;28;20082;-57
2021/03/14 00:07:36;;;;;;;9.60;1.15;;;;;;;;;;4935928;28;20178;-57
2021/03/14 00:10:04;;;;;;;11.75;1.27;;;;;;;;;;4930027;28;20497;-59
2021/03/14 00:12:29;;;;;;;5.55;1.45;;;;;;;;;;4932804;28;20074;-57
2021/03/14 00:14:55;;;;;;;14.98;2.33;;;;;;;;;;4915778;28;20043;-57
2021/03/14 00:17:22;;;;;;;8.57;1.20;;;;;;;;;;4915932;28;20074;-57
2021/03/14 00:19:48;;;;;;;15.00;1.48;;;;;;;;;;4908048;28;20607;-59
2021/03/14 00:22:15;;;;;;;18.83;1.70;;;;;;;;;;4930743;28;20034;-56
2021/03/14 00:24:48;;;;;;;15.05;2.05;;;;;;;;;;4935599;28;20118;-57
2021/03/14 00:27:16;;;;;;;8.13;1.52;;;;;;;;;;4917337;28;20087;-57
2021/03/14 00:29:42;;;;;;;21.00;2.30;;;;;;;;;;4931256;28;20050;-57
2021/03/14 00:32:08;;;;;;;10.45;1.75;;;;;;;;;;4914833;28;20062;-57
2021/03/14 00:34:36;;;;;;;8.60;1.73;;;;;;;;;;4930314;28;20039;-58
2021/03/14 00:37:01;;;;;;;13.07;1.98;;;;;;;;;;4892906;28;20059;-57
2021/03/14 00:39:26;;;;;;;12.85;1.45;;;;;;;;;;4925499;28;20125;-57
2021/03/14 00:41:57;;;;;;;13.55;1.75;;;;;;;;;;4911574;28;20035;-57
2021/03/14 00:44:25;;;;;;;20.52;1.67;;;;;;;;;;4932410;28;20039;-58
2021/03/14 00:46:53;;;;;;;9.20;1.05;;;;;;;;;;4932286;28;20031;-58
2021/03/14 00:49:19;;;;;;;13.57;1.25;;;;;;;;;;4919449;28;20090;-59
2021/03/14 00:51:47;;;;;;;10.90;1.45;;;;;;;;;;4928468;28;20071;-58
2021/03/14 00:54:12;;;;;;;17.20;1.65;;;;;;;;;;4915532;28;20079;-57
2021/03/14 00:56:42;;;;;;;12.38;1.88;;;;;;;;;;4932854;28;20039;-58
2021/03/14 00:59:08;;;;;;;9.43;1.33;;;;;;;;;;4927457;28;20047;-60
2021/03/14 01:01:34;;;;;;;12.38;1.23;;;;;;;;;;4929674;28;20414;-58
2021/03/14 01:04:02;;;;;;;13.57;2.53;;;;;;;;;;4907327;28;20940;-57
2021/03/14 01:06:27;;;;;;;9.00;1.45;;;;;;;;;;4934940;28;20624;-57
2021/03/14 01:08:53;;;;;;;13.05;2.28;;;;;;;;;;4922109;28;20047;-57
2021/03/14 01:11:19;;;;;;;7.50;1.90;;;;;;;;;;4918762;28;20050;-57
2021/03/14 01:13:47;;;;;;;20.80;1.92;;;;;;;;;;4931615;28;20034;-58
2021/03/14 01:16:13;;;;;;;22.92;1.85;;;;;;;;;;4907903;28;20031;-57
2021/03/14 01:18:39;;;;;;;12.60;1.92;;;;;;;;;;4933057;28;20039;-57
2021/03/14 01:21:10;;;;;;;18.17;2.30;;;;;;;;;;4908245;28;20660;-57
2021/03/14 01:23:35;;;;;;;19.15;2.03;;;;;;;;;;4926121;28;20035;-58
2021/03/14 01:26:03;;;;;;;11.88;1.45;;;;;;;;;;4911678;28;20523;-55
2021/03/14 01:28:31;;;;;;;9.20;1.45;;;;;;;;;;4913347;28;20047;-57
2021/03/14 01:30:59;;;;;;;15.90;2.03;;;;;;;;;;4930852;28;20042;-57
2021/03/14 01:33:27;;;;;;;9.02;1.30;;;;;;;;;;4931406;28;20057;-59
2021/03/14 01:35:53;;;;;;;14.95;2.05;;;;;;;;;;4913248;28;20034;-58
2021/03/14 01:38:19;;;;;;;17.40;1.38;;;;;;;;;;4929334;28;20039;-59
2021/03/14 01:40:45;;;;;;;8.48;1.55;;;;;;;;;;4925621;28;20074;-58
2021/03/14 01:43:13;;;;;;;25.80;1.95;;;;;;;;;;4929061;28;20105;-59
2021/03/14 01:45:43;;;;;;;17.92;2.72;;;;;;;;;;4927349;28;20110;-59
2021/03/14 01:48:13;;;;;;;14.25;1.35;;;;;;;;;;4909705;28;20035;-58
2021/03/14 01:50:38;;;;;;;11.80;2.10;;;;;;;;;;4930441;28;20046;-58
2021/03/14 01:53:04;;;;;;;16.85;2.63;;;;;;;;;;4927186;28;20045;-58
2021/03/14 01:55:36;;;;;;;12.02;1.13;;;;;;;;;;4930909;28;20126;-58
2021/03/14 01:58:05;;;;;;;16.08;2.00;;;;;;;;;;4931823;28;20058;-57
2021/03/14 02:00:30;;;;;;;11.25;2.10;;;;;;;;;;4920887;28;21968;-58
2021/03/14 02:02:58;;;;;;;15.00;2.10;;;;;;;;;;4919506;28;20086;-57
2021/03/14 02:05:26;;;;;;;12.70;2.08;;;;;;;;;;4921573;28;20046;-56
2021/03/14 02:07:55;;;;;;;12.05;1.52;;;;;;;;;;4927185;28;20035;-58
2021/03/14 02:10:29;;;;;;;15.75;1.52;;;;;;;;;;4927382;28;20038;-58
2021/03/14 02:12:55;;;;;;;14.82;2.35;;;;;;;;;;4925453;28;20067;-58
2021/03/14 02:15:21;;;;;;;16.27;2.10;;;;;;;;;;4910732;28;20130;-58
2021/03/14 02:17:52;;;;;;;8.15;1.48;;;;;;;;;;4926473;28;20035;-59
2021/03/14 02:20:18;;;;;;;11.88;1.67;;;;;;;;;;4892160;28;22129;-59
2021/03/14 02:22:49;;;;;;;25.85;1.88;;;;;;;;;;4921229;28;20122;-58
2021/03/14 02:25:22;;;;;;;9.25;1.67;;;;;;;;;;4914257;28;20102;-59
2021/03/14 02:27:50;;;;;;;11.38;1.45;;;;;;;;;;4932568;28;20019;-58
2021/03/14 02:30:18;;;;;;;15.93;1.73;;;;;;;;;;4924942;28;20066;-59
2021/03/14 02:32:47;;;;;;;14.50;1.58;;;;;;;;;;4925090;28;20086;-58
2021/03/14 02:35:18;;;;;;;18.88;2.28;;;;;;;;;;4918959;28;21302;-58
2021/03/14 02:37:46;;;;;;;7.32;1.35;;;;;;;;;;4927155;28;20030;-59
2021/03/14 02:40:17;;;;;;;15.25;1.70;;;;;;;;;;4911759;28;20053;-58
2021/03/14 02:42:44;;;;;;;15.40;1.98;;;;;;;;;;4906086;28;20035;-58
2021/03/14 02:45:13;;;;;;;6.88;1.77;;;;;;;;;;4927225;28;20039;-58
2021/03/14 02:47:38;;;;;;;16.05;1.95;;;;;;;;;;4919586;28;20028;-58
2021/03/14 02:50:08;;;;;;;15.93;2.08;;;;;;;;;;4923970;28;20073;-58
2021/03/14 02:52:37;;;;;;;14.88;2.08;;;;;;;;;;4929644;28;21029;-58
2021/03/14 02:55:05;;;;;;;21.00;2.50;;;;;;;;;;4930442;28;20031;-58
2021/03/14 02:57:33;;;;;;;10.10;1.65;;;;;;;;;;4910966;28;20114;-58
2021/03/14 02:59:59;;;;;;;10.48;2.13;;;;;;;;;;4922004;28;20043;-58
2021/03/14 03:02:28;;;;;;;17.92;1.88;;;;;;;;;;4928153;28;20073;-58
2021/03/14 03:04:53;;;;;;;17.23;1.98;;;;;;;;;;4918222;28;20023;-58
2021/03/14 03:07:20;;;;;;;19.10;2.33;;;;;;;;;;4921684;28;20782;-59
2021/03/14 03:09:52;;;;;;;18.15;2.00;;;;;;;;;;4927921;28;21695;-58
2021/03/14 03:12:22;;;;;;;21.10;2.45;;;;;;;;;;4924914;28;20282;-58
2021/03/14 03:14:48;;;;;;;21.13;2.05;;;;;;;;;;4926087;28;20476;-58
2021/03/14 03:17:17;;;;;;;21.50;2.58;;;;;;;;;;4930950;28;20046;-58
2021/03/14 03:19:45;;;;;;;23.85;2.05;;;;;;;;;;4928124;28;20155;-59
2021/03/14 03:22:10;;;;;;;12.35;1.88;;;;;;;;;;4906244;28;20125;-58
2021/03/14 03:24:41;;;;;;;19.92;2.17;;;;;;;;;;4930906;28;20031;-58
2021/03/14 03:27:06;;;;;;;23.15;2.72;;;;;;;;;;4912140;28;20130;-58
2021/03/14 03:29:34;;;;;;;17.38;2.28;;;;;;;;;;4925414;28;20986;-58
2021/03/14 03:32:00;;;;;;;11.32;1.98;;;;;;;;;;4924461;28;20030;-59
2021/03/14 03:34:28;;;;;;;22.27;2.05;;;;;;;;;;4932204;28;20030;-58
2021/03/14 03:36:56;;;;;;;11.63;3.38;;;;;;;;;;4924688;28;20130;-59
2021/03/14 03:39:24;;;;;;;15.18;2.00;;;;;;;;;;4894008;28;20035;-60
2021/03/14 03:41:55;;;;;;;18.33;1.92;;;;;;;;;;4901261;28;20130;-60
2021/03/14 03:44:22;;;;;;;31.83;3.15;;;;;;;;;;4926623;28;20055;-59
2021/03/14 03:46:55;;;;;;;19.65;1.67;;;;;;;;;;4927530;28;20027;-60
2021/03/14 03:49:24;;;;;;;13.00;1.65;;;;;;;;;;4910739;28;20028;-58
2021/03/14 03:51:55;;;;;;;13.05;3.28;;;;;;;;;;4922716;28;20038;-58
2021/03/14 03:54:20;;;;;;;13.35;2.20;;;;;;;;;;4928392;28;20027;-58
2021/03/14 03:56:50;;;;;;;13.13;2.55;;;;;;;;;;4926470;28;20047;-59
2021/03/14 03:59:16;;;;;;;7.00;1.35;;;;;;;;;;4925255;28;20035;-60
2021/03/14 04:01:47;;;;;;;9.65;1.80;;;;;;;;;;4921916;28;20118;-60
2021/03/14 04:04:18;;;;;;;20.35;2.65;;;;;;;;;;4924543;28;20046;-59
2021/03/14 04:06:53;;;;;;;13.18;1.70;;;;;;;;;;4930962;28;21067;-58
2021/03/14 04:09:21;;;;;;;15.98;2.00;;;;;;;;;;4925829;28;20077;-58
2021/03/14 04:11:47;;;;;;;7.75;1.58;;;;;;;;;;4926651;28;20035;-59
2021/03/14 04:14:13;;;;;;;21.40;2.25;;;;;;;;;;4903936;28;20070;-59
2021/03/14 04:16:40;;;;;;;15.40;3.13;;;;;;;;;;4928104;28;20046;-59
2021/03/14 04:19:09;;;;;;;12.77;2.53;;;;;;;;;;4931178;28;20035;-59
2021/03/14 04:21:41;;;;;;;16.10;2.55;;;;;;;;;;4930150;28;20674;-59
2021/03/14 04:24:14;;;;;;;12.70;2.35;;;;;;;;;;4933510;28;20545;-59
2021/03/14 04:26:45;;;;;;;19.30;2.72;;;;;;;;;;4930721;28;22030;-60
2021/03/14 04:29:14;;;;;;;5.60;2.53;;;;;;;;;;4931459;28;20485;-59
2021/03/14 04:31:43;;;;;;;16.40;1.90;;;;;;;;;;4928930;28;20043;-59
2021/03/14 04:34:18;;;;;;;24.35;3.10;;;;;;;;;;4927414;28;20039;-57
2021/03/14 04:36:49;;;;;;;19.00;2.30;;;;;;;;;;4926697;28;20039;-57
2021/03/14 04:39:15;;;;;;;17.60;3.50;;;;;;;;;;4932143;28;20031;-58
2021/03/14 04:41:42;;;;;;;17.23;2.42;;;;;;;;;;4928949;28;20699;-59
2021/03/14 04:44:12;;;;;;;8.77;2.30;;;;;;;;;;4932131;28;20763;-58
2021/03/14 04:46:40;;;;;;;17.63;2.28;;;;;;;;;;4931902;28;20053;-58
2021/03/14 04:49:08;;;;;;;13.07;2.25;;;;;;;;;;4932399;28;20041;-58
2021/03/14 04:51:38;;;;;;;9.07;2.08;;;;;;;;;;4929334;28;20082;-58
2021/03/14 04:54:14;;;;;;;15.60;2.85;;;;;;;;;;4928726;28;20148;-58
2021/03/14 04:56:43;;;;;;;9.45;1.52;;;;;;;;;;4933289;28;20086;-57
2021/03/14 04:59:11;;;;;;;10.07;2.65;;;;;;;;;;4931279;28;20035;-58
2021/03/14 05:01:43;;;;;;;20.45;3.10;;;;;;;;;;4932627;28;20039;-59
2021/03/14 05:04:10;;;;;;;18.70;2.30;;;;;;;;;;4933428;28;21043;-59
2021/03/14 05:06:39;;;;;;;20.75;2.83;;;;;;;;;;4927225;28;20058;-59
2021/03/14 05:09:09;;;;;;;15.65;2.35;;;;;;;;;;4909229;28;20027;-59
2021/03/14 05:11:39;;;;;;;11.23;2.03;;;;;;;;;;4925346;28;20057;-59
2021/03/14 05:14:07;;;;;;;17.88;3.00;;;;;;;;;;4927204;28;20035;-59
2021/03/14 05:16:33;;;;;;;6.80;1.90;;;;;;;;;;4929674;28;20038;-59
2021/03/14 05:18:59;;;;;;;11.48;2.30;;;;;;;;;;4922240;28;20034;-58
2021/03/14 05:21:25;;;;;;;13.35;3.28;;;;;;;;;;4928755;28;20039;-59
2021/03/14 05:23:51;;;;;;;19.77;2.25;;;;;;;;;;4930798;28;20046;-59
2021/03/14 05:26:21;;;;;;;11.70;2.17;;;;;;;;;;4931068;28;20519;-59
2021/03/14 05:28:50;;;;;;;23.55;3.25;;;;;;;;;;4915897;28;20047;-59
2021/03/14 05:31:33;;;;;;;23.15;3.70;;;;;;;;;;4924219;28;20035;-59
2021/03/14 05:34:00;;;;;;;23.10;3.05;;;;;;;;;;4931055;28;20039;-59
2021/03/14 05:36:26;;;;;;;18.08;2.72;;;;;;;;;;4913547;28;20050;-58
2021/03/14 05:38:57;;;;;;;19.20;2.83;;;;;;;;;;4922438;28;20043;-59
2021/03/14 05:41:23;;;;;;;19.55;4.00;;;;;;;;;;4924204;28;20147;-59
2021/03/14 05:43:51;;;;;;;14.82;2.30;;;;;;;;;;4930224;28;20043;-59
2021/03/14 05:46:20;;;;;;;12.20;2.88;;;;;;;;;;4930983;28;21091;-59
2021/03/14 05:48:48;;;;;;;16.45;3.42;;;;;;;;;;4930065;28;20026;-59
2021/03/14 05:51:16;;;;;;;22.42;3.03;;;;;;;;;;4926703;28;20035;-59
2021/03/14 05:53:45;;;;;;;20.17;2.85;;;;;;;;;;4927247;28;20481;-59
2021/03/14 05:56:10;;;;;;;23.85;3.45;;;;;;;;;;4930814;28;20089;-59
2021/03/14 05:58:36;;;;;;;13.13;1.98;;;;;;;;;;4932974;28;20039;-59
2021/03/14 06:01:10;;;;;;;11.95;2.35;;;;;;;;;;4923055;28;20066;-59
2021/03/14 06:03:35;;;;;;;14.57;1.67;;;;;;;;;;4929296;28;20059;-59
2021/03/14 06:06:06;;;;;;;31.55;3.60;;;;;;;;;;4920289;28;20079;-59
2021/03/14 06:08:34;;;;;;;10.60;2.60;;;;;;;;;;4924731;28;20630;-59
2021/03/14 06:11:06;;;;;;;15.80;2.28;;;;;;;;;;4922226;28;20066;-59
2021/03/14 06:13:32;;;;;;;17.80;2.85;;;;;;;;;;4927723;28;20039;-58
2021/03/14 06:15:59;;;;;;;17.05;2.67;;;;;;;;;;4924017;28;20043;-58
2021/03/14 06:18:29;;;;;;;19.35;3.13;;;;;;;;;;4925695;28;20043;-58
2021/03/14 06:20:57;;;;;;;22.10;2.90;;;;;;;;;;4929772;28;20039;-58
2021/03/14 06:23:26;;;;;;;24.05;2.90;;;;;;;;;;4928360;28;20020;-58
2021/03/14 06:25:57;;;;;;;21.90;2.75;;;;;;;;;;4928084;28;20050;-59
2021/03/14 06:28:34;;;;;;;25.48;3.30;;;;;;;;;;4929285;28;20038;-58
2021/03/14 06:31:21;;;;;;;21.05;3.20;;;;;;;;;;4924558;28;20126;-59
2021/03/14 06:33:47;;;;;;;17.67;2.58;;;;;;;;;;4925955;28;20462;-58
2021/03/14 06:36:23;;;;;;;15.98;2.72;;;;;;;;;;4924066;28;20916;-58
2021/03/14 06:38:49;;;;;;;22.17;2.83;;;;;;;;;;4911779;28;20031;-58
2021/03/14 06:41:18;;;;;;;12.88;2.67;;;;;;;;;;4909341;28;20756;-58
2021/03/14 06:43:46;;;;;;;21.52;3.15;;;;;;;;;;4925356;28;20031;-59
2021/03/14 06:46:23;;;;;;;17.60;3.10;;;;;;;;;;4930072;28;20042;-59
2021/03/14 06:49:04;;;;;;;31.13;3.22;;;;;;;;;;4931502;28;20029;-58
2021/03/14 06:51:33;;;;;;;15.25;2.42;;;;;;;;;;4930886;28;20041;-59
2021/03/14 06:54:15;;;;;;;26.58;3.35;;;;;;;;;;4933679;28;20031;-59
2021/03/14 06:56:41;;;;;;;13.60;3.28;;;;;;;;;;4929182;28;20042;-59
2021/03/14 06:59:19;;;;;;;22.40;2.63;;;;;;;;;;4932053;28;20663;-59
2021/03/14 07:02:02;;;;;;;10.90;2.92;;;;;;;;;;4911120;28;20108;-58
2021/03/14 07:04:31;;;;;;;29.50;3.10;;;;;;;;;;4929344;28;20039;-58
2021/03/14 07:06:57;;;;;;;17.52;3.00;;;;;;;;;;4926905;28;20463;-59
2021/03/14 07:09:23;;;;;;;11.30;2.47;;;;;;;;;;4931392;28;22053;-59
2021/03/14 07:11:52;;;;;;;23.95;2.22;;;;;;;;;;4929873;28;21048;-58
2021/03/14 07:14:20;;;;;;;18.85;3.45;;;;;;;;;;4929024;28;20053;-58
2021/03/14 07:16:51;;;;;;;19.83;2.25;;;;;;;;;;4925702;28;20066;-58
2021/03/14 07:19:22;;;;;;;20.45;3.17;;;;;;;;;;4896416;28;20527;-58
2021/03/14 07:22:06;;;;;;;11.13;2.92;;;;;;;;;;4920821;28;20133;-59
2021/03/14 07:24:39;;;;;;;9.57;2.35;;;;;;;;;;4911616;28;20042;-60
2021/03/14 07:27:05;;;;;;;7.35;2.08;;;;;;;;;;4927029;28;20035;-59
2021/03/14 07:29:34;;;;;;;16.92;2.33;;;;;;;;;;4930486;28;20593;-58
2021/03/14 07:32:02;;;;;;;15.98;2.20;;;;;;;;;;4930902;28;20078;-58
2021/03/14 07:34:33;;;;;;;9.13;1.60;;;;;;;;;;4930770;28;20027;-58
2021/03/14 07:37:06;;;;;;;13.98;1.80;;;;;;;;;;4932917;28;20031;-58
2021/03/14 07:39:34;;;;;;;18.45;2.00;;;;;;;;;;4930470;28;20031;-58
2021/03/14 07:42:02;;;;;;;16.38;2.53;;;;;;;;;;4924039;28;20043;-58
2021/03/14 07:44:30;;;;;;;11.57;2.00;;;;;;;;;;4893850;29;20032;-58
2021/03/14 07:46:58;;;;;;;17.23;1.88;;;;;;;;;;4925853;28;20082;-59
2021/03/14 07:49:26;;;;;;;9.85;1.17;;;;;;;;;;4899123;29;20263;-60
2021/03/14 07:52:02;;;;;;;20.08;2.55;;;;;;;;;;4911949;29;20047;-59
2021/03/14 07:54:33;;;;;;;8.73;1.38;;;;;;;;;;4917699;29;20039;-59
2021/03/14 07:57:01;;;;;;;7.63;1.42;;;;;;;;;;4912353;29;20526;-59
2021/03/14 07:59:30;;;;;;;10.40;1.90;;;;;;;;;;4915202;29;20402;-59
2021/03/14 08:02:33;;;;;;;10.00;1.80;;;;;;;;;;4932445;28;20125;-59
2021/03/14 08:05:02;;;;;;;14.07;1.85;;;;;;;;;;4875368;29;20046;-60
2021/03/14 08:07:36;;;;;;;16.42;1.98;;;;;;;;;;4916437;29;20086;-60
2021/03/14 08:10:03;;;;;;;11.02;1.63;;;;;;;;;;4931818;28;20035;-59
2021/03/14 08:12:35;;;;;;;8.25;1.65;;;;;;;;;;4911127;29;20115;-59
2021/03/14 08:15:01;;;;;;;9.30;1.27;;;;;;;;;;4917323;29;20130;-58
2021/03/14 08:17:36;;;;;;;10.45;1.58;;;;;;;;;;4890984;29;22051;-58
2021/03/14 08:20:02;;;;;;;12.40;1.88;;;;;;;;;;4915270;29;20039;-59
2021/03/14 08:22:37;;;;;;;14.43;1.27;;;;;;;;;;4895518;29;20122;-60
2021/03/14 08:25:20;;;;;;;13.50;1.42;;;;;;;;;;4911743;29;20146;-61
2021/03/14 08:27:48;;;;;;;9.65;1.30;;;;;;;;;;4915710;29;20031;-61
2021/03/14 08:30:29;;;;;;;5.60;1.08;;;;;;;;;;4915282;29;20531;-61
2021/03/14 08:33:22;;;;;;;9.65;1.27;;;;;;;;;;4888877;29;20130;-61
2021/03/14 08:35:50;;;;;;;9.45;1.67;;;;;;;;;;4914920;28;20565;-63
2021/03/14 08:38:25;;;;;;;10.23;1.60;;;;;;;;;;4904198;29;20040;-59
2021/03/14 08:41:10;;;;;;;8.35;1.55;;;;;;;;;;4923021;28;20035;-61
2021/03/14 08:43:44;;;;;;;14.98;1.33;;;;;;;;;;4934824;28;20046;-60
2021/03/14 08:46:09;;;;;;;9.93;1.40;;;;;;;;;;4930658;28;20082;-61
2021/03/14 08:48:37;;;;;;;9.35;1.38;;;;;;;;;;4933054;28;20035;-60
2021/03/14 08:51:04;;;;;;;11.60;2.00;;;;;;;;;;4914037;28;20611;-60
2021/03/14 08:53:36;;;;;;;8.82;1.23;;;;;;;;;;4932341;28;20031;-59
2021/03/14 08:56:05;;;;;;;13.63;1.60;;;;;;;;;;4932681;28;20126;-59
2021/03/14 08:58:35;;;;;;;13.40;2.13;;;;;;;;;;4933932;28;20046;-60
2021/03/14 09:01:10;;;;;;;8.63;1.10;;;;;;;;;;4931113;28;20825;-59
2021/03/14 09:03:40;;;;;;;8.75;1.33;;;;;;;;;;4931618;28;20105;-60
2021/03/14 09:06:21;;;;;;;13.77;1.58;;;;;;;;;;4916242;28;20038;-60
2021/03/14 09:08:53;;;;;;;14.77;1.58;;;;;;;;;;4932407;28;20035;-61
2021/03/14 09:11:39;;;;;;;6.30;1.58;;;;;;;;;;4928292;28;20035;-60
2021/03/14 09:14:25;;;;;;;9.80;1.45;;;;;;;;;;4934690;28;20560;-60
2021/03/14 09:16:54;;;;;;;7.15;1.52;;;;;;;;;;4931921;28;20039;-60
2021/03/14 09:19:23;;;;;;;13.00;1.67;;;;;;;;;;4933807;28;20056;-61
2021/03/14 09:21:55;;;;;;;10.93;1.48;;;;;;;;;;4931068;28;20044;-59
2021/03/14 09:24:27;;;;;;;4.55;1.48;;;;;;;;;;4913371;28;20047;-60
2021/03/14 09:27:02;;;;;;;15.65;1.88;;;;;;;;;;4914128;28;20060;-58
2021/03/14 09:29:47;;;;;;;11.77;1.42;;;;;;;;;;4918552;28;20058;-59
2021/03/14 09:32:14;;;;;;;3.67;0.90;;;;;;;;;;4932005;28;20170;-59
2021/03/14 09:34:42;;;;;;;8.02;1.42;;;;;;;;;;4914545;28;20047;-59
2021/03/14 09:37:07;;;;;;;4.43;1.17;;;;;;;;;;4931749;28;20442;-60
2021/03/14 09:39:32;;;;;;;10.82;1.80;;;;;;;;;;4932191;28;20140;-59
2021/03/14 09:42:00;;;;;;;5.75;1.38;;;;;;;;;;4929813;28;20081;-59
2021/03/14 09:44:29;;;;;;;10.70;1.63;;;;;;;;;;4928645;28;20114;-60
2021/03/14 09:47:00;;;;;;;8.57;1.10;;;;;;;;;;4933246;28;20089;-60
2021/03/14 09:49:29;;;;;;;8.35;0.95;;;;;;;;;;4932070;28;20039;-60
2021/03/14 09:51:57;;;;;;;13.73;1.52;;;;;;;;;;4932930;28;20067;-59
2021/03/14 09:54:23;;;;;;;6.53;1.27;;;;;;;;;;4926927;28;20109;-60
2021/03/14 09:56:56;;;;;;;4.32;0.93;;;;;;;;;;4913275;28;20611;-60
2021/03/14 09:59:26;;;;;;;5.65;1.05;;;;;;;;;;4930421;28;20074;-60
2021/03/14 10:01:56;;;;;;;7.68;1.20;;;;;;;;;;4927744;28;20039;-59
2021/03/14 10:04:28;;;;;;;12.70;1.55;;;;;;;;;;4930737;28;20158;-60
2021/03/14 10:06:54;;;;;;;6.20;1.13;;;;;;;;;;4931720;28;20090;-60
2021/03/14 10:09:23;;;;;;;9.57;1.33;;;;;;;;;;4914006;28;20058;-61
2021/03/14 10:11:51;;;;;;;9.02;1.55;;;;;;;;;;4928111;28;20597;-61
2021/03/14 10:14:20;;;;;;;6.47;1.52;;;;;;;;;;4931520;28;20031;-59
2021/03/14 10:16:49;;;;;;;4.90;1.27;;;;;;;;;;4915480;28;20043;-60
2021/03/14 10:19:17;;;;;;;12.50;1.30;;;;;;;;;;4930715;28;20090;-59
2021/03/14 10:21:44;;;;;;;12.13;1.58;;;;;;;;;;4927952;28;20545;-61
2021/03/14 10:24:18;;;;;;;15.48;1.85;;;;;;;;;;4930230;28;20035;-61
2021/03/14 10:27:00;;;;;;;10.85;1.35;;;;;;;;;;4925751;28;20067;-60
2021/03/14 10:29:38;;;;;;;13.80;1.73;;;;;;;;;;4924108;28;20042;-60
2021/03/14 10:32:19;;;;;;;6.60;1.33;;;;;;;;;;4931531;28;21321;-60
2021/03/14 10:34:50;;;;;;;11.65;1.55;;;;;;;;;;4930170;28;20038;-60
2021/03/14 10:37:29;;;;;;;10.50;1.23;;;;;;;;;;4929215;28;20043;-61
2021/03/14 10:40:03;;;;;;;6.60;0.95;;;;;;;;;;4911373;28;20106;-59
2021/03/14 10:42:32;;;;;;;11.43;1.30;;;;;;;;;;4929501;28;20163;-59
2021/03/14 10:45:10;;;;;;;9.13;1.30;;;;;;;;;;4933903;28;20035;-60
2021/03/14 10:47:38;;;;;;;8.25;1.15;;;;;;;;;;4930771;28;20035;-63
2021/03/14 10:50:12;;;;;;;3.08;1.00;;;;;;;;;;4928275;28;20042;-60
2021/03/14 10:52:39;;;;;;;12.07;1.10;;;;;;;;;;4933154;28;20082;-60
2021/03/14 10:55:26;;;;;;;15.57;1.20;;;;;;;;;;4928829;28;20269;-59
2021/03/14 10:58:03;;;;;;;10.38;1.17;;;;;;;;;;4929055;28;20107;-60
2021/03/14 11:00:31;;;;;;;7.40;1.17;;;;;;;;;;4929142;28;20121;-61
2021/03/14 11:03:00;;;;;;;8.02;1.40;;;;;;;;;;4932197;28;20031;-61
2021/03/14 11:05:25;;;;;;;7.47;1.15;;;;;;;;;;4935390;28;20039;-60
2021/03/14 11:07:57;;;;;;;8.77;1.33;;;;;;;;;;4928828;28;20118;-61
2021/03/14 11:10:25;;;;;;;8.55;1.20;;;;;;;;;;4924986;28;20086;-60
2021/03/14 11:12:56;;;;;;;4.40;1.00;;;;;;;;;;4932312;28;20054;-62
2021/03/14 11:15:27;;;;;;;8.15;1.58;;;;;;;;;;4914099;28;20039;-60
2021/03/14 11:17:55;;;;;;;6.90;1.50;;;;;;;;;;4925970;28;20189;-60
2021/03/14 11:20:22;;;;;;;12.77;1.67;;;;;;;;;;4913450;28;20421;-60
2021/03/14 11:22:48;;;;;;;6.13;1.30;;;;;;;;;;4928784;28;20035;-60
2021/03/14 11:25:16;;;;;;;5.40;1.15;;;;;;;;;;4914139;28;20050;-60
2021/03/14 11:27:42;;;;;;;9.43;1.20;;;;;;;;;;4930436;28;20054;-59
2021/03/14 11:30:08;;;;;;;5.80;0.98;;;;;;;;;;4908682;28;20038;-61
2021/03/14 11:32:36;;;;;;;7.85;1.05;;;;;;;;;;4910795;28;20542;-63
2021/03/14 11:35:04;;;;;;;6.90;1.02;;;;;;;;;;4928941;28;20062;-60
2021/03/14 11:37:35;;;;;;;6.25;1.75;;;;;;;;;;4916389;28;20067;-59
2021/03/14 11:40:03;;;;;;;6.93;0.73;;;;;;;;;;4926017;28;20038;-60
2021/03/14 11:42:31;;;;;;;5.50;1.33;;;;;;;;;;4908788;28;20042;-59
2021/03/14 11:44:59;;;;;;;13.50;1.30;;;;;;;;;;4929289;28;20031;-61
2021/03/14 11:47:25;;;;;;;11.65;1.85;;;;;;;;;;4929856;28;20031;-61
2021/03/14 11:49:53;;;;;;;6.05;1.10;;;;;;;;;;4912893;28;20035;-61
2021/03/14 11:52:18;;;;;;;6.22;1.27;;;;;;;;;;4930544;28;21966;-60
2021/03/14 11:54:44;;;;;;;3.30;1.02;;;;;;;;;;4914475;28;20046;-62
2021/03/14 11:57:11;;;;;;;7.25;1.23;;;;;;;;;;4909593;28;20174;-61
2021/03/14 11:59:39;;;;;;;9.68;1.08;;;;;;;;;;4927322;28;20747;-61
2021/03/14 12:02:06;;;;;;;8.35;1.13;;;;;;;;;;4913705;28;20043;-62
2021/03/14 12:04:32;;;;;;;8.13;1.75;;;;;;;;;;4930389;28;20038;-62
2021/03/14 12:06:58;;;;;;;8.40;1.20;;;;;;;;;;4912096;28;20039;-61
2021/03/14 12:09:28;;;;;;;5.65;1.10;;;;;;;;;;4933587;28;20133;-60
2021/03/14 12:11:53;;;;;;;9.63;1.20;;;;;;;;;;4930062;28;20053;-59
2021/03/14 12:14:19;;;;;;;7.40;1.88;;;;;;;;;;4913859;28;20050;-61
2021/03/14 12:16:45;;;;;;;7.55;1.15;;;;;;;;;;4921503;28;20073;-59
2021/03/14 12:19:12;;;;;;;7.55;0.98;;;;;;;;;;4929640;28;20111;-61
2021/03/14 12:21:43;;;;;;;6.90;1.00;;;;;;;;;;4911798;28;20046;-60
2021/03/14 12:24:11;;;;;;;9.82;1.50;;;;;;;;;;4911799;28;20035;-60
2021/03/14 12:26:37;;;;;;;6.68;1.30;;;;;;;;;;4930694;28;20031;-60
2021/03/14 12:29:04;;;;;;;5.50;1.40;;;;;;;;;;4913130;28;20590;-60
2021/03/14 12:31:32;;;;;;;7.18;1.23;;;;;;;;;;4928761;28;20475;-60
2021/03/14 12:34:00;;;;;;;10.30;1.27;;;;;;;;;;4893834;28;20406;-60
2021/03/14 12:36:27;;;;;;;8.07;1.33;;;;;;;;;;4930796;28;21282;-60
2021/03/14 12:38:53;;;;;;;11.65;1.70;;;;;;;;;;4935250;28;20122;-59
2021/03/14 12:41:23;;;;;;;9.57;1.20;;;;;;;;;;4915046;28;20682;-60
2021/03/14 12:43:51;;;;;;;12.90;1.50;;;;;;;;;;4935045;28;21491;-59
2021/03/14 12:46:18;;;;;;;9.82;0.93;;;;;;;;;;4925171;28;20113;-61
2021/03/14 12:48:44;;;;;;;6.47;1.15;;;;;;;;;;4932832;28;20143;-60
2021/03/14 12:51:12;;;;;;;12.75;1.23;;;;;;;;;;4930856;28;20093;-60
2021/03/14 12:53:44;;;;;;;5.15;0.82;;;;;;;;;;4931704;28;20098;-61
2021/03/14 12:56:10;;;;;;;12.88;1.50;;;;;;;;;;4929599;28;20039;-61
2021/03/14 12:58:38;;;;;;;9.20;1.45;;;;;;;;;;4930567;28;20270;-61
2021/03/14 13:01:03;;;;;;;8.45;1.40;;;;;;;;;;4931697;28;20061;-63
2021/03/14 13:03:29;;;;;;;6.63;1.52;;;;;;;;;;4929459;28;20027;-62
2021/03/14 13:05:59;;;;;;;8.57;1.00;;;;;;;;;;4929953;28;20498;-60
2021/03/14 13:08:25;;;;;;;16.27;1.25;;;;;;;;;;4932786;28;20035;-61
2021/03/14 13:10:51;;;;;;;4.82;1.13;;;;;;;;;;4933617;28;20149;-60
2021/03/14 13:13:21;;;;;;;3.45;0.70;;;;;;;;;;4916445;28;20126;-62
2021/03/14 13:15:52;;;;;;;7.30;1.45;;;;;;;;;;4915067;28;20086;-59
2021/03/14 13:18:18;;;;;;;10.15;1.38;;;;;;;;;;4909556;28;20532;-59
2021/03/14 13:20:47;;;;;;;3.88;0.88;;;;;;;;;;4894184;28;20042;-61
2021/03/14 13:23:17;;;;;;;8.10;1.45;;;;;;;;;;4930811;28;21650;-60
2021/03/14 13:25:42;;;;;;;5.60;1.02;;;;;;;;;;4928906;28;20027;-62
2021/03/14 13:28:08;;;;;;;4.68;1.00;;;;;;;;;;4929174;28;21112;-59
2021/03/14 13:30:35;;;;;;;11.25;1.15;;;;;;;;;;4929277;28;20047;-59
2021/03/14 13:33:03;;;;;;;6.85;1.08;;;;;;;;;;4929099;28;20640;-60
2021/03/14 13:35:31;;;;;;;10.23;1.27;;;;;;;;;;4933766;28;20045;-59
2021/03/14 13:38:02;;;;;;;8.85;1.20;;;;;;;;;;4928457;28;20714;-59
2021/03/14 13:40:30;;;;;;;6.60;1.17;;;;;;;;;;4931036;28;20142;-60
2021/03/14 13:42:56;;;;;;;10.18;1.10;;;;;;;;;;4928930;28;20043;-60
2021/03/14 13:45:22;;;;;;;7.00;1.10;;;;;;;;;;4911505;28;20039;-59
2021/03/14 13:47:47;;;;;;;8.48;1.38;;;;;;;;;;4913253;28;20039;-60
2021/03/14 13:50:15;;;;;;;5.22;0.70;;;;;;;;;;4933931;28;20074;-60
2021/03/14 13:52:45;;;;;;;6.45;1.27;;;;;;;;;;4931835;28;21635;-61
2021/03/14 13:55:11;;;;;;;13.07;1.65;;;;;;;;;;4931264;28;20138;-60
2021/03/14 13:57:42;;;;;;;10.30;1.20;;;;;;;;;;4914666;28;20039;-60
2021/03/14 14:00:08;;;;;;;4.93;0.88;;;;;;;;;;4931542;28;20077;-61
2021/03/14 14:02:34;;;;;;;10.68;1.13;;;;;;;;;;4912595;28;20035;-60
2021/03/14 14:05:03;;;;;;;5.55;1.52;;;;;;;;;;4931245;28;20027;-61
2021/03/14 14:07:28;;;;;;;12.07;1.50;;;;;;;;;;4929006;28;20126;-60
2021/03/14 14:09:54;;;;;;;11.25;1.20;;;;;;;;;;4917227;28;20032;-59
2021/03/14 14:12:25;;;;;;;7.07;0.80;;;;;;;;;;4928777;28;20390;-59
2021/03/14 14:14:55;;;;;;;12.02;1.42;;;;;;;;;;4927342;28;20027;-60
2021/03/14 14:17:23;;;;;;;5.05;1.13;;;;;;;;;;4933906;28;20596;-61
2021/03/14 14:19:49;;;;;;;9.40;1.42;;;;;;;;;;4931997;28;20034;-59
2021/03/14 14:22:17;;;;;;;7.45;1.35;;;;;;;;;;4931270;28;20066;-61
2021/03/14 14:24:43;;;;;;;7.90;1.60;;;;;;;;;;4912742;28;22678;-61
2021/03/14 14:27:13;;;;;;;6.50;1.30;;;;;;;;;;4928392;28;20050;-59
2021/03/14 14:29:41;;;;;;;4.70;1.30;;;;;;;;;;4932766;28;20212;-65
2021/03/14 14:32:09;;;;;;;7.40;1.60;;;;;;;;;;4913725;28;20046;-59
2021/03/14 14:34:34;;;;;;;10.07;1.45;;;;;;;;;;4928091;28;20738;-61
2021/03/14 14:37:03;;;;;;;8.13;1.35;;;;;;;;;;4895619;28;21293;-62
2021/03/14 14:39:33;;;;;;;9.40;1.55;;;;;;;;;;4927568;28;20109;-60
2021/03/14 14:42:01;;;;;;;2.95;0.90;;;;;;;;;;4930912;28;20059;-62
2021/03/14 14:44:28;;;;;;;12.05;1.13;;;;;;;;;;4933213;28;20057;-60
2021/03/14 14:46:53;;;;;;;14.13;2.00;;;;;;;;;;4929797;28;21163;-60